Time;durP1;ratioP1;P1;durP2;ratioP2;P2;SDS_P1;SDS_P2;PMS_P1;PMS_P2;Temp;Humidity;BMP_temperature;BMP_pressure;BME280_temperature;BME280_humidity;BME280_pressure;Samples;Min_cycle;Max_cycle;Signal;HPM_P1;HPM_P2
2022/04/08 00:01:17;;;;;;;51.28;43.10;;;24.80;69.40;;;;;;1961100;72;21111;-80
2022/04/08 00:03:48;;;;;;;58.35;45.95;;;24.80;69.60;;;;;;1947125;72;21200;-79
2022/04/08 00:06:19;;;;;;;53.78;43.42;;;24.90;69.70;;;;;;1956679;73;21045;-81
2022/04/08 00:08:52;;;;;;;55.40;44.48;;;24.90;69.70;;;;;;1936299;74;21189;-80
2022/04/08 00:11:22;;;;;;;54.35;45.63;;;24.90;69.90;;;;;;1945138;73;21505;-81
2022/04/08 00:13:54;;;;;;;58.15;46.55;;;24.90;70.40;;;;;;1956412;73;21107;-80
2022/04/08 00:16:25;;;;;;;54.15;45.45;;;25.00;70.90;;;;;;1955932;73;21037;-81
2022/04/08 00:18:56;;;;;;;62.25;48.75;;;25.00;70.70;;;;;;1925401;72;21050;-81
2022/04/08 00:21:28;;;;;;;55.73;47.95;;;25.00;70.80;;;;;;1926394;74;21068;-80
2022/04/08 00:23:59;;;;;;;60.08;48.65;;;25.00;70.60;;;;;;1926564;74;21132;-80
2022/04/08 00:26:30;;;;;;;63.08;51.70;;;25.00;70.90;;;;;;1942995;73;21139;-80
2022/04/08 00:29:01;;;;;;;56.23;47.20;;;25.10;71.00;;;;;;1947589;72;21197;-81
2022/04/08 00:31:32;;;;;;;54.15;44.25;;;25.00;70.70;;;;;;1934659;72;21064;-80
2022/04/08 00:34:03;;;;;;;55.85;47.23;;;25.10;70.80;;;;;;1959155;72;21516;-80
2022/04/08 00:36:34;;;;;;;60.25;45.35;;;25.10;70.70;;;;;;1959683;72;21111;-81
2022/04/08 00:39:05;;;;;;;55.98;46.63;;;25.10;71.00;;;;;;1926614;73;21045;-81
2022/04/08 00:41:36;;;;;;;57.08;46.50;;;25.10;71.40;;;;;;1947521;72;21142;-80
2022/04/08 00:44:09;;;;;;;57.78;47.30;;;25.10;71.40;;;;;;1947273;73;21133;-79
2022/04/08 00:46:40;;;;;;;55.92;45.67;;;25.10;72.40;;;;;;1943707;72;21097;-80
2022/04/08 00:49:12;;;;;;;54.77;46.92;;;25.10;71.10;;;;;;1954509;73;21159;-80
2022/04/08 00:51:43;;;;;;;56.58;45.95;;;25.20;70.80;;;;;;1953160;73;21238;-81
2022/04/08 00:54:15;;;;;;;57.27;46.10;;;25.10;70.90;;;;;;1932412;73;21080;-80
2022/04/08 00:56:46;;;;;;;56.55;46.98;;;25.20;70.50;;;;;;1955262;73;21115;-79
2022/04/08 00:59:18;;;;;;;57.10;46.00;;;25.20;70.70;;;;;;1949696;73;21759;-80
2022/04/08 01:01:49;;;;;;;62.13;53.15;;;25.20;70.70;;;;;;1947039;73;21628;-80
2022/04/08 01:04:21;;;;;;;58.98;47.40;;;25.20;70.10;;;;;;1941216;72;21609;-80
2022/04/08 01:06:52;;;;;;;58.80;46.25;;;25.30;70.00;;;;;;1926280;73;21242;-80
2022/04/08 01:09:24;;;;;;;57.43;46.33;;;25.30;69.70;;;;;;1930663;74;21134;-80
2022/04/08 01:11:55;;;;;;;55.83;44.35;;;25.30;69.40;;;;;;1941030;73;21088;-80
2022/04/08 01:14:26;;;;;;;54.38;43.63;;;25.40;69.30;;;;;;1926730;74;21138;-81
2022/04/08 01:16:59;;;;;;;51.13;44.48;;;25.40;68.90;;;;;;1918757;74;21126;-79
2022/04/08 01:19:30;;;;;;;55.95;47.43;;;25.40;69.10;;;;;;1932148;74;21638;-80
2022/04/08 01:22:01;;;;;;;61.53;46.33;;;25.50;69.30;;;;;;1940668;74;21044;-79
2022/04/08 01:24:34;;;;;;;53.20;44.20;;;25.50;69.20;;;;;;1917273;74;21119;-79
2022/04/08 01:27:05;;;;;;;55.85;44.48;;;25.60;69.30;;;;;;1939588;73;21138;-81
2022/04/08 01:29:36;;;;;;;54.80;45.38;;;25.70;68.60;;;;;;1960516;73;21190;-80
2022/04/08 01:32:07;;;;;;;56.20;42.95;;;25.80;68.40;;;;;;1928749;73;21092;-79
2022/04/08 01:34:39;;;;;;;53.28;43.42;;;25.80;66.50;;;;;;1928799;73;21565;-80
2022/04/08 01:37:10;;;;;;;54.03;44.10;;;25.90;67.20;;;;;;1924377;74;21630;-80
2022/04/08 01:39:42;;;;;;;52.38;43.10;;;25.90;67.20;;;;;;1929529;73;21108;-80
2022/04/08 01:42:14;;;;;;;50.40;41.10;;;25.90;67.30;;;;;;1911544;74;21142;-79
2022/04/08 01:44:46;;;;;;;52.00;43.10;;;26.00;65.50;;;;;;1928106;73;21040;-81
2022/04/08 01:47:17;;;;;;;48.52;41.00;;;26.00;64.70;;;;;;1957691;73;21053;-80
2022/04/08 01:49:51;;;;;;;49.70;40.63;;;26.00;64.10;;;;;;1944649;73;21090;-80
2022/04/08 01:52:27;;;;;;;46.05;39.78;;;26.20;64.30;;;;;;1931221;73;21144;-81
2022/04/08 01:55:06;;;;;;;47.20;38.58;;;26.20;63.50;;;;;;1958932;73;21100;-80
2022/04/08 01:58:08;;;;;;;50.73;40.45;;;26.20;63.60;;;;;;1878434;74;21194;-80
2022/04/08 02:00:58;;;;;;;48.13;40.45;;;26.30;63.40;;;;;;1916352;74;21122;-80
2022/04/08 02:03:56;;;;;;;51.65;38.78;;;26.40;63.70;;;;;;1793228;78;21597;-80
2022/04/08 02:06:32;;;;;;;48.68;39.40;;;26.50;64.70;;;;;;1836047;77;21151;-80
2022/04/08 02:09:04;;;;;;;45.83;38.30;;;26.50;62.90;;;;;;1834320;77;21169;-80
2022/04/08 02:11:36;;;;;;;47.35;38.67;;;26.60;63.40;;;;;;1832650;77;21089;-79
2022/04/08 02:14:08;;;;;;;47.62;38.33;;;26.70;62.90;;;;;;1830286;76;21268;-78
2022/04/08 02:16:59;;;;;;;43.20;37.17;;;26.70;62.00;;;;;;1819776;76;21207;-79
2022/04/08 02:19:30;;;;;;;44.60;36.58;;;26.80;61.40;;;;;;1837507;77;21589;-80
2022/04/08 02:22:01;;;;;;;45.50;37.33;;;26.80;60.90;;;;;;1828884;77;21238;-80
2022/04/08 02:24:35;;;;;;;46.77;37.08;;;26.90;60.70;;;;;;1837325;76;21114;-79
2022/04/08 02:27:06;;;;;;;44.35;36.08;;;27.00;61.30;;;;;;1857721;76;21166;-77
2022/04/08 02:29:37;;;;;;;44.42;35.98;;;27.10;61.20;;;;;;1831386;78;21104;-78
2022/04/08 02:32:12;;;;;;;45.98;36.08;;;27.10;60.40;;;;;;1829042;77;21095;-79
2022/04/08 02:34:41;;;;;;;39.80;34.60;;;27.30;60.00;;;;;;1870338;75;21191;-80
2022/04/08 02:37:12;;;;;;;48.05;35.73;;;27.30;59.90;;;;;;1964405;72;21052;-80
2022/04/08 02:39:43;;;;;;;41.77;35.15;;;27.40;59.90;;;;;;1915589;72;21060;-80
2022/04/08 02:42:17;;;;;;;40.52;34.55;;;27.40;59.60;;;;;;1969040;72;21488;-79
2022/04/08 02:44:47;;;;;;;39.30;33.10;;;27.40;59.40;;;;;;1973630;72;21158;-79
2022/04/08 02:47:18;;;;;;;40.60;33.80;;;27.50;59.50;;;;;;1936940;74;21095;-81
2022/04/08 02:49:50;;;;;;;40.30;32.25;;;27.60;58.70;;;;;;1960072;72;21099;-80
2022/04/08 02:52:21;;;;;;;36.38;31.95;;;27.70;58.10;;;;;;1947358;72;21111;-79
2022/04/08 02:54:52;;;;;;;41.48;32.15;;;27.80;57.10;;;;;;1913393;74;21162;-78
2022/04/08 02:57:23;;;;;;;38.95;31.87;;;27.80;57.10;;;;;;1953568;72;21095;-79
2022/04/08 03:00:14;;;;;;;39.50;31.23;;;27.90;56.70;;;;;;1927509;73;21190;-81
2022/04/08 03:02:46;;;;;;;38.00;31.85;;;28.00;56.30;;;;;;1798855;78;21227;-80
2022/04/08 03:05:18;;;;;;;39.83;30.70;;;28.10;55.90;;;;;;1839218;78;21234;-80
2022/04/08 03:07:48;;;;;;;34.53;29.67;;;28.20;55.70;;;;;;1843668;76;22370;-79
2022/04/08 03:10:19;;;;;;;36.77;29.90;;;28.20;55.70;;;;;;1837819;78;21238;-79
2022/04/08 03:12:50;;;;;;;37.90;28.85;;;28.30;54.10;;;;;;1841257;76;21143;-80
2022/04/08 03:15:21;;;;;;;38.50;29.27;;;28.40;54.80;;;;;;1838166;76;21187;-81
2022/04/08 03:17:53;;;;;;;36.05;29.10;;;28.40;54.60;;;;;;1845091;76;21167;-80
2022/04/08 03:20:24;;;;;;;35.55;29.63;;;28.60;54.70;;;;;;1840755;78;21158;-81
2022/04/08 03:22:55;;;;;;;34.83;29.90;;;28.70;54.10;;;;;;1841082;76;21088;-82
2022/04/08 03:25:26;;;;;;;32.17;27.70;;;28.70;53.80;;;;;;1845392;76;21203;-81
2022/04/08 03:27:57;;;;;;;38.38;28.57;;;28.80;53.10;;;;;;1841533;76;21091;-81
2022/04/08 03:30:27;;;;;;;37.53;28.35;;;28.80;53.10;;;;;;1841590;78;21091;-81
2022/04/08 03:33:01;;;;;;;34.33;26.73;;;29.00;53.40;;;;;;1838464;76;21620;-82
2022/04/08 03:35:39;;;;;;;33.50;26.05;;;29.00;52.50;;;;;;1838821;76;21196;-81
2022/04/08 03:38:26;;;;;;;33.35;26.37;;;29.00;52.70;;;;;;1821017;76;21085;-81
2022/04/08 03:40:58;;;;;;;34.80;26.37;;;29.00;51.10;;;;;;1825657;78;21196;-80
2022/04/08 03:43:30;;;;;;;32.70;24.92;;;29.10;52.10;;;;;;1841675;76;21220;-80
2022/04/08 03:46:02;;;;;;;30.30;26.25;;;29.20;50.60;;;;;;1834589;76;21153;-80
2022/04/08 03:48:34;;;;;;;32.50;25.15;;;29.30;50.70;;;;;;1840365;76;21094;-80
2022/04/08 03:51:05;;;;;;;28.62;25.55;;;29.30;51.40;;;;;;1782141;79;21081;-80
2022/04/08 03:53:36;;;;;;;28.55;24.90;;;29.40;51.00;;;;;;1846355;76;21117;-81
2022/04/08 03:56:08;;;;;;;26.87;23.45;;;29.50;51.10;;;;;;1789093;79;21150;-80
2022/04/08 03:58:41;;;;;;;33.33;26.25;;;29.70;50.20;;;;;;1846071;76;21106;-81
2022/04/08 04:01:13;;;;;;;31.73;24.80;;;29.80;50.70;;;;;;1838252;76;21152;-80
2022/04/08 04:03:43;;;;;;;32.35;23.87;;;29.90;50.30;;;;;;1845796;76;21166;-81
2022/04/08 04:06:17;;;;;;;31.62;24.80;;;29.90;49.30;;;;;;1830383;78;21175;-80
2022/04/08 04:08:48;;;;;;;31.87;24.12;;;30.10;48.90;;;;;;1803134;78;21125;-81
2022/04/08 04:11:20;;;;;;;30.27;23.77;;;30.10;48.80;;;;;;1781137;79;21222;-82
2022/04/08 04:13:53;;;;;;;28.40;23.30;;;30.20;47.90;;;;;;1775244;79;21164;-82
2022/04/08 04:16:25;;;;;;;28.23;23.00;;;30.10;47.60;;;;;;1761051;79;21712;-83
2022/04/08 04:18:59;;;;;;;35.30;24.02;;;30.20;47.50;;;;;;1783726;79;21163;-83
2022/04/08 04:21:30;;;;;;;30.68;24.40;;;30.20;48.10;;;;;;1767501;80;21162;-82
2022/04/08 04:24:08;;;;;;;26.97;22.13;;;30.20;47.40;;;;;;1766434;81;21524;-82
2022/04/08 04:26:51;;;;;;;26.87;22.30;;;30.20;47.50;;;;;;1802951;78;21237;-83
2022/04/08 04:29:28;;;;;;;28.73;23.38;;;30.20;47.60;;;;;;1827509;77;21137;-83
2022/04/08 04:32:03;;;;;;;26.62;23.00;;;30.20;47.60;;;;;;1850655;76;21104;-82
2022/04/08 04:34:37;;;;;;;31.90;23.35;;;30.20;46.90;;;;;;1842900;77;21148;-83
2022/04/08 04:37:10;;;;;;;28.23;22.17;;;30.30;47.50;;;;;;1841242;77;21156;-81
2022/04/08 04:39:43;;;;;;;31.47;23.40;;;30.30;46.80;;;;;;1833705;77;21066;-82
2022/04/08 04:42:14;;;;;;;29.70;22.65;;;30.30;47.00;;;;;;1841292;76;21888;-83
2022/04/08 04:44:44;;;;;;;25.43;22.67;;;30.40;47.00;;;;;;1845213;76;21192;-82
2022/04/08 04:47:17;;;;;;;29.25;21.65;;;30.40;47.20;;;;;;1851116;77;21043;-82
2022/04/08 04:49:54;;;;;;;24.60;21.45;;;30.40;47.40;;;;;;1851470;76;21175;-83
2022/04/08 04:52:26;;;;;;;26.65;21.23;;;30.50;46.70;;;;;;1850127;77;21417;-81
2022/04/08 04:54:57;;;;;;;34.30;21.77;;;30.60;46.90;;;;;;1833805;77;21105;-81
2022/04/08 04:57:28;;;;;;;29.23;21.73;;;30.60;46.70;;;;;;1822541;77;21203;-83
2022/04/08 05:00:01;;;;;;;30.48;21.68;;;30.70;45.90;;;;;;1847970;76;21147;-83
2022/04/08 05:02:34;;;;;;;25.48;21.73;;;30.80;46.20;;;;;;1848351;76;21551;-83
2022/04/08 05:05:06;;;;;;;31.48;23.42;;;30.80;46.20;;;;;;1836182;76;21134;-83
2022/04/08 05:07:38;;;;;;;29.55;21.73;;;30.90;46.00;;;;;;1844262;78;21570;-83
2022/04/08 05:10:12;;;;;;;29.30;22.50;;;30.90;45.90;;;;;;1839123;78;21091;-83
2022/04/08 05:12:43;;;;;;;27.80;22.37;;;30.90;45.60;;;;;;1842877;76;21098;-82
2022/04/08 05:15:16;;;;;;;23.60;21.10;;;31.00;45.40;;;;;;1832582;77;21071;-83
2022/04/08 05:17:47;;;;;;;28.32;21.97;;;31.00;45.60;;;;;;1811149;76;21162;-83
2022/04/08 05:20:18;;;;;;;25.92;21.90;;;31.00;45.60;;;;;;1844820;76;21211;-81
2022/04/08 05:22:49;;;;;;;28.45;20.82;;;31.10;45.70;;;;;;1853868;76;21107;-81
2022/04/08 05:25:20;;;;;;;25.32;21.60;;;31.10;45.90;;;;;;1840624;76;21096;-82
2022/04/08 05:27:51;;;;;;;30.00;22.25;;;31.10;46.00;;;;;;1840577;76;21174;-82
2022/04/08 05:30:22;;;;;;;25.50;21.57;;;31.10;45.90;;;;;;1838647;78;21181;-82
2022/04/08 05:32:54;;;;;;;26.20;21.77;;;31.10;46.10;;;;;;1838747;76;21159;-82
2022/04/08 05:35:25;;;;;;;27.87;21.23;;;31.10;46.00;;;;;;1839889;76;21145;-82
2022/04/08 05:37:56;;;;;;;29.95;21.30;;;31.20;45.40;;;;;;1831199;76;21229;-82
2022/04/08 05:40:27;;;;;;;27.32;21.65;;;31.20;45.40;;;;;;1831085;76;21142;-83
2022/04/08 05:42:57;;;;;;;28.83;21.95;;;31.20;45.10;;;;;;1842001;76;21800;-82
2022/04/08 05:45:31;;;;;;;28.17;21.55;;;31.30;45.20;;;;;;1842752;78;21166;-83
2022/04/08 05:48:20;;;;;;;31.20;22.98;;;31.40;45.80;;;;;;1839906;76;21182;-83
2022/04/08 05:50:51;;;;;;;28.32;21.35;;;31.50;45.30;;;;;;1843079;76;21082;-83
2022/04/08 05:53:26;;;;;;;30.80;21.97;;;31.50;45.20;;;;;;1843941;76;21161;-82
2022/04/08 05:55:58;;;;;;;28.90;23.12;;;31.50;44.90;;;;;;1839760;76;21530;-82
2022/04/08 05:58:29;;;;;;;25.43;22.20;;;31.50;44.60;;;;;;1856504;76;21198;-82
2022/04/08 06:01:01;;;;;;;26.30;21.07;;;31.50;45.10;;;;;;1869062;77;21078;-82
2022/04/08 06:03:32;;;;;;;25.05;20.27;;;31.60;44.40;;;;;;1849944;76;21157;-81
2022/04/08 06:06:03;;;;;;;28.35;21.15;;;31.60;45.00;;;;;;1853282;76;21071;-82
2022/04/08 06:08:34;;;;;;;31.05;21.97;;;31.60;45.00;;;;;;1863375;76;21099;-83
2022/04/08 06:11:05;;;;;;;27.32;22.73;;;31.60;45.10;;;;;;1797784;80;21178;-82
2022/04/08 06:13:35;;;;;;;28.98;21.95;;;31.60;45.00;;;;;;1854415;76;21111;-81
2022/04/08 06:16:06;;;;;;;29.15;21.82;;;31.60;45.30;;;;;;1840850;78;21098;-81
2022/04/08 06:18:37;;;;;;;26.20;20.97;;;31.60;44.90;;;;;;1840719;78;21142;-82
2022/04/08 06:21:08;;;;;;;26.65;21.37;;;31.70;44.80;;;;;;1840790;78;21134;-82
2022/04/08 06:23:39;;;;;;;25.65;20.82;;;31.70;44.70;;;;;;1847499;76;21134;-83
2022/04/08 06:26:10;;;;;;;27.60;21.55;;;31.70;44.60;;;;;;1751796;79;21116;-82
2022/04/08 06:28:41;;;;;;;28.25;21.77;;;31.80;44.90;;;;;;1833512;77;21166;-82
2022/04/08 06:31:12;;;;;;;33.08;21.82;;;31.80;44.90;;;;;;1852591;77;21091;-81
2022/04/08 06:33:44;;;;;;;26.00;21.35;;;31.80;45.00;;;;;;1868416;77;21082;-83
2022/04/08 06:36:15;;;;;;;27.50;21.02;;;31.90;44.80;;;;;;1838929;77;21138;-83
2022/04/08 06:38:48;;;;;;;23.55;20.90;;;31.90;44.20;;;;;;1848822;76;21120;-83
2022/04/08 06:41:18;;;;;;;26.07;20.72;;;31.80;44.00;;;;;;1848944;76;21612;-83
2022/04/08 06:43:50;;;;;;;25.37;20.48;;;31.80;44.00;;;;;;1841473;76;21160;-83
2022/04/08 06:46:22;;;;;;;23.52;20.60;;;31.80;43.50;;;;;;1848001;76;21455;-83
2022/04/08 06:48:54;;;;;;;23.55;19.92;;;31.70;43.80;;;;;;1840110;76;21113;-82
2022/04/08 06:51:25;;;;;;;28.20;20.82;;;31.80;43.90;;;;;;1839804;77;21129;-83
2022/04/08 06:53:56;;;;;;;24.95;20.65;;;31.80;44.80;;;;;;1822690;78;21115;-82
2022/04/08 06:56:30;;;;;;;28.70;20.48;;;31.90;43.80;;;;;;1802713;79;21109;-82
2022/04/08 06:59:01;;;;;;;26.33;20.17;;;31.90;44.50;;;;;;1817688;78;21086;-82
2022/04/08 07:01:33;;;;;;;24.70;21.25;;;31.90;43.10;;;;;;1818983;78;21150;-82
2022/04/08 07:04:04;;;;;;;30.10;23.92;;;31.90;43.00;;;;;;1807630;78;21305;-81
2022/04/08 07:06:35;;;;;;;26.62;20.70;;;31.90;43.50;;;;;;1821419;78;21169;-82
2022/04/08 07:09:06;;;;;;;25.92;20.95;;;31.90;42.50;;;;;;1834779;78;21067;-81
2022/04/08 07:11:37;;;;;;;23.45;19.45;;;31.90;43.30;;;;;;1834688;78;21106;-82
2022/04/08 07:14:09;;;;;;;27.85;20.27;;;31.90;43.40;;;;;;1816092;78;21221;-83
2022/04/08 07:16:43;;;;;;;23.75;20.23;;;31.80;42.60;;;;;;1810656;78;21645;-83
2022/04/08 07:19:14;;;;;;;27.50;19.27;;;31.80;43.60;;;;;;1781701;79;21135;-84
2022/04/08 07:21:45;;;;;;;27.73;20.90;;;31.70;43.70;;;;;;1771802;79;21086;-83
2022/04/08 07:24:19;;;;;;;24.55;21.45;;;31.70;43.70;;;;;;1785477;79;21653;-83
2022/04/08 07:26:50;;;;;;;34.78;25.00;;;31.70;43.20;;;;;;1834511;78;21173;-83
2022/04/08 07:29:21;;;;;;;28.07;21.90;;;31.70;43.40;;;;;;1781742;79;21147;-85
2022/04/08 07:31:52;;;;;;;28.65;21.93;;;31.70;44.60;;;;;;1817613;78;21206;-84
2022/04/08 07:34:23;;;;;;;25.52;20.57;;;31.70;44.50;;;;;;1778253;79;21157;-83
2022/04/08 07:36:57;;;;;;;25.02;21.45;;;31.80;44.80;;;;;;1804376;79;21115;-83
2022/04/08 07:39:28;;;;;;;27.52;20.30;;;31.80;43.90;;;;;;1797231;78;21164;-83
2022/04/08 07:42:00;;;;;;;24.10;19.35;;;31.90;43.50;;;;;;1806477;78;21193;-82
2022/04/08 07:44:31;;;;;;;29.75;20.77;;;31.90;42.70;;;;;;1779891;78;21209;-81
2022/04/08 07:47:03;;;;;;;27.80;20.60;;;31.80;43.10;;;;;;1777220;79;21158;-83
2022/04/08 07:49:34;;;;;;;24.70;19.87;;;31.80;43.10;;;;;;1771062;79;21244;-83
2022/04/08 07:52:06;;;;;;;27.73;19.42;;;31.80;42.90;;;;;;1831847;77;21100;-83
2022/04/08 07:54:38;;;;;;;23.12;18.65;;;31.80;42.50;;;;;;1828149;77;21095;-83
2022/04/08 07:57:09;;;;;;;27.27;18.42;;;31.80;41.80;;;;;;1838019;77;21130;-82
2022/04/08 07:59:40;;;;;;;25.60;18.27;;;31.90;41.10;;;;;;1832255;77;21302;-84
2022/04/08 08:02:15;;;;;;;24.77;19.32;;;31.80;40.70;;;;;;1841312;77;21155;-83
2022/04/08 08:04:47;;;;;;;22.58;19.62;;;31.80;41.40;;;;;;1829497;77;21185;-82
2022/04/08 08:07:18;;;;;;;29.20;19.30;;;31.80;42.20;;;;;;1823724;77;21274;-82
2022/04/08 08:09:49;;;;;;;25.77;20.08;;;31.80;42.30;;;;;;1782998;79;21114;-81
2022/04/08 08:12:24;;;;;;;25.77;19.12;;;31.80;42.10;;;;;;1786027;78;21101;-82
2022/04/08 08:14:55;;;;;;;27.42;19.45;;;31.80;42.80;;;;;;1747984;80;21185;-84
2022/04/08 08:17:26;;;;;;;23.62;19.65;;;31.80;42.50;;;;;;1815342;78;21095;-81
2022/04/08 08:19:57;;;;;;;23.40;19.37;;;31.80;42.50;;;;;;1777925;79;21286;-82
2022/04/08 08:22:28;;;;;;;23.38;19.65;;;31.80;42.10;;;;;;1777823;79;21192;-82
2022/04/08 08:25:00;;;;;;;27.25;19.25;;;31.80;42.50;;;;;;1777901;79;21239;-82
2022/04/08 08:27:33;;;;;;;24.45;19.30;;;31.70;42.30;;;;;;1831138;78;21664;-82
2022/04/08 08:30:06;;;;;;;22.15;18.73;;;31.70;42.80;;;;;;1812100;78;21178;-82
2022/04/08 08:32:41;;;;;;;26.80;20.30;;;31.70;42.10;;;;;;1775778;79;21094;-81
2022/04/08 08:35:30;;;;;;;30.75;20.00;;;31.70;42.60;;;;;;1745679;81;21172;-81
2022/04/08 08:38:02;;;;;;;24.07;20.15;;;31.60;43.10;;;;;;1772533;79;21169;-83
2022/04/08 08:40:34;;;;;;;28.45;21.35;;;31.60;43.00;;;;;;1821727;78;21148;-82
2022/04/08 08:43:07;;;;;;;24.82;21.12;;;31.50;43.20;;;;;;1773656;79;21186;-82
2022/04/08 08:45:40;;;;;;;23.45;20.95;;;31.50;43.70;;;;;;1774903;79;21200;-82
2022/04/08 08:48:10;;;;;;;25.30;20.65;;;31.50;43.50;;;;;;1816740;78;21282;-83
2022/04/08 08:50:46;;;;;;;26.68;20.23;;;31.50;42.90;;;;;;1773389;78;21189;-83
2022/04/08 08:53:19;;;;;;;22.75;20.27;;;31.50;43.20;;;;;;1772723;79;21106;-83
2022/04/08 08:55:50;;;;;;;27.70;22.05;;;31.50;43.60;;;;;;1773837;79;21130;-83
2022/04/08 08:58:21;;;;;;;26.85;21.55;;;31.40;43.30;;;;;;1764812;79;21501;-82
2022/04/08 09:00:52;;;;;;;24.80;19.98;;;31.40;43.50;;;;;;1809608;78;21562;-82
2022/04/08 09:03:30;;;;;;;26.93;20.30;;;31.40;44.10;;;;;;1776868;80;21245;-82
2022/04/08 09:06:01;;;;;;;27.50;21.10;;;31.40;43.80;;;;;;1773782;78;21129;-83
2022/04/08 09:08:35;;;;;;;28.70;21.62;;;31.40;44.30;;;;;;1805978;75;21068;-82
2022/04/08 09:11:07;;;;;;;25.68;21.10;;;31.30;43.60;;;;;;1873739;75;21190;-83
2022/04/08 09:13:40;;;;;;;27.25;20.97;;;31.30;43.70;;;;;;1804280;79;21114;-83
2022/04/08 09:16:11;;;;;;;23.40;20.88;;;31.30;44.10;;;;;;1869706;75;21116;-83
2022/04/08 09:18:47;;;;;;;26.62;20.60;;;31.30;43.90;;;;;;1797632;78;21213;-83
2022/04/08 09:21:23;;;;;;;25.85;22.20;;;31.20;44.10;;;;;;1855828;76;21167;-81
2022/04/08 09:23:59;;;;;;;27.62;22.65;;;31.20;44.50;;;;;;1861710;77;21097;-82
2022/04/08 09:26:34;;;;;;;23.95;20.17;;;31.20;44.70;;;;;;1874518;74;21069;-82
2022/04/08 09:29:14;;;;;;;25.60;21.02;;;31.20;44.60;;;;;;1868407;75;21061;-83
2022/04/08 09:31:50;;;;;;;27.90;22.02;;;31.20;44.80;;;;;;1867110;75;21129;-82
2022/04/08 09:34:23;;;;;;;27.45;22.27;;;31.10;45.20;;;;;;1867956;77;21567;-81
2022/04/08 09:36:53;;;;;;;26.97;21.77;;;31.10;44.50;;;;;;1867706;77;21139;-83
2022/04/08 09:39:24;;;;;;;23.98;21.20;;;31.10;45.10;;;;;;1868192;75;21053;-83
2022/04/08 09:42:03;;;;;;;23.87;21.20;;;31.10;45.30;;;;;;1863949;75;21063;-83
2022/04/08 09:44:35;;;;;;;25.48;21.25;;;31.10;44.90;;;;;;1848942;75;21091;-80
2022/04/08 09:47:13;;;;;;;24.90;21.45;;;31.00;44.60;;;;;;1837030;78;21076;-81
2022/04/08 09:49:44;;;;;;;24.85;20.55;;;31.00;44.60;;;;;;1864947;75;21665;-82
2022/04/08 09:52:17;;;;;;;26.65;21.97;;;30.90;44.80;;;;;;1852313;76;21155;-81
2022/04/08 09:54:55;;;;;;;27.13;22.02;;;30.90;44.90;;;;;;1891276;75;21659;-81
2022/04/08 09:57:30;;;;;;;26.48;21.68;;;30.90;45.90;;;;;;1868777;77;21068;-81
2022/04/08 10:00:13;;;;;;;27.02;21.95;;;30.90;45.20;;;;;;1869207;75;21085;-80
2022/04/08 10:02:54;;;;;;;28.40;22.52;;;30.80;45.40;;;;;;1875513;75;21068;-82
2022/04/08 10:05:45;;;;;;;28.65;22.22;;;30.80;45.50;;;;;;1871901;75;21133;-82
2022/04/08 10:08:30;;;;;;;24.05;21.12;;;30.80;45.90;;;;;;1867102;76;21139;-82
2022/04/08 10:11:07;;;;;;;29.65;22.48;;;30.80;45.90;;;;;;1840095;77;21087;-81
2022/04/08 10:13:41;;;;;;;25.35;20.62;;;30.80;46.00;;;;;;1866444;74;21099;-80
2022/04/08 10:16:17;;;;;;;24.37;20.85;;;30.70;45.70;;;;;;1866855;77;21079;-81
2022/04/08 10:19:04;;;;;;;25.63;21.67;;;30.70;45.60;;;;;;1866485;75;21671;-81
2022/04/08 10:21:36;;;;;;;29.10;21.87;;;30.70;46.00;;;;;;1866178;77;21137;-83
2022/04/08 10:24:17;;;;;;;26.87;23.92;;;30.70;46.20;;;;;;1816992;77;21075;-83
2022/04/08 10:26:50;;;;;;;25.20;21.70;;;30.70;46.50;;;;;;1834678;77;21634;-82
2022/04/08 10:29:25;;;;;;;29.90;23.67;;;30.60;46.30;;;;;;1863267;76;21232;-81
2022/04/08 10:32:03;;;;;;;27.70;23.02;;;30.60;46.10;;;;;;1866569;77;21182;-82
2022/04/08 10:34:37;;;;;;;31.52;23.10;;;30.60;46.10;;;;;;1866560;77;21070;-82
2022/04/08 10:37:15;;;;;;;26.90;22.45;;;30.60;46.10;;;;;;1835603;77;21135;-82
2022/04/08 10:39:51;;;;;;;26.25;21.45;;;30.60;45.90;;;;;;1855190;76;21153;-81
2022/04/08 10:42:24;;;;;;;30.52;22.85;;;30.50;46.00;;;;;;1864878;76;21142;-82
2022/04/08 10:44:55;;;;;;;24.05;21.45;;;30.50;46.30;;;;;;1859571;77;21720;-82
2022/04/08 10:47:27;;;;;;;27.13;22.67;;;30.40;46.10;;;;;;1847077;77;21166;-80
2022/04/08 10:50:00;;;;;;;26.05;21.93;;;30.40;46.30;;;;;;1867240;75;21164;-82
2022/04/08 10:52:34;;;;;;;28.77;22.93;;;30.40;46.30;;;;;;1805381;75;21041;-82
2022/04/08 10:55:08;;;;;;;26.50;23.05;;;30.40;46.60;;;;;;1877691;75;21169;-82
2022/04/08 10:57:45;;;;;;;25.27;22.62;;;30.40;46.40;;;;;;1840614;77;21088;-81
2022/04/08 11:00:19;;;;;;;31.82;24.67;;;30.30;46.40;;;;;;1803803;78;21206;-81
2022/04/08 11:02:53;;;;;;;26.12;22.70;;;30.30;46.50;;;;;;1838798;77;21622;-81
2022/04/08 11:05:27;;;;;;;27.77;21.48;;;30.30;46.70;;;;;;1831002;77;21102;-82
2022/04/08 11:07:59;;;;;;;26.45;21.73;;;30.30;47.50;;;;;;1834319;77;21170;-81
2022/04/08 11:10:31;;;;;;;29.63;23.15;;;30.30;46.90;;;;;;1851772;77;21171;-81
2022/04/08 11:13:02;;;;;;;26.23;23.10;;;30.20;47.00;;;;;;1828057;78;21137;-82
2022/04/08 11:15:33;;;;;;;28.70;22.95;;;30.20;47.10;;;;;;1821884;78;21108;-82
2022/04/08 11:18:06;;;;;;;27.45;22.13;;;30.10;47.30;;;;;;1817266;77;21213;-81
2022/04/08 11:20:37;;;;;;;26.85;22.80;;;30.10;47.40;;;;;;1830965;77;21110;-81
2022/04/08 11:23:08;;;;;;;34.85;26.02;;;30.10;48.30;;;;;;1854211;75;21150;-82
2022/04/08 11:25:39;;;;;;;37.42;29.23;;;30.10;47.60;;;;;;1830850;77;21080;-81
2022/04/08 11:28:12;;;;;;;38.05;29.37;;;30.10;47.90;;;;;;1793786;78;21191;-81
2022/04/08 11:30:44;;;;;;;39.38;29.27;;;30.10;48.30;;;;;;1864924;76;21171;-82
2022/04/08 11:33:18;;;;;;;32.45;25.88;;;30.00;48.40;;;;;;1828660;77;21098;-81
2022/04/08 11:35:50;;;;;;;31.95;26.65;;;30.00;48.70;;;;;;1822450;78;21124;-80
2022/04/08 11:38:23;;;;;;;32.73;26.30;;;29.90;48.60;;;;;;1836863;77;21104;-80
2022/04/08 11:40:53;;;;;;;34.23;25.92;;;29.90;48.70;;;;;;1820853;78;21536;-81
2022/04/08 11:43:25;;;;;;;29.00;24.85;;;29.90;49.00;;;;;;1834584;77;21159;-81
2022/04/08 11:45:56;;;;;;;34.15;24.72;;;29.90;49.00;;;;;;1823410;78;21481;-81
2022/04/08 11:48:27;;;;;;;35.92;26.70;;;29.90;49.10;;;;;;1828280;77;21061;-81
2022/04/08 11:51:03;;;;;;;30.80;25.62;;;29.80;49.30;;;;;;1830486;77;21171;-81
2022/04/08 11:53:40;;;;;;;30.80;27.13;;;29.80;49.20;;;;;;1821153;77;21153;-81
2022/04/08 11:56:11;;;;;;;37.55;26.97;;;29.80;49.80;;;;;;1851298;75;21695;-81
2022/04/08 11:58:44;;;;;;;32.80;26.37;;;29.80;50.00;;;;;;1855448;75;21187;-82
2022/04/08 12:01:17;;;;;;;34.23;26.68;;;29.70;50.20;;;;;;1845048;77;21136;-82
2022/04/08 12:03:52;;;;;;;32.13;25.45;;;29.70;50.50;;;;;;1851461;76;21126;-81
2022/04/08 12:06:26;;;;;;;33.58;25.62;;;29.70;50.70;;;;;;1843124;77;21099;-81
2022/04/08 12:08:56;;;;;;;31.07;25.00;;;29.60;50.70;;;;;;1850737;75;21136;-82
2022/04/08 12:11:32;;;;;;;46.35;32.83;;;29.60;51.00;;;;;;1852887;75;21238;-80
2022/04/08 12:14:09;;;;;;;40.83;31.90;;;29.60;51.30;;;;;;1830257;77;21200;-81
2022/04/08 12:16:39;;;;;;;36.28;30.45;;;29.60;51.50;;;;;;1850031;76;21101;-80
2022/04/08 12:19:14;;;;;;;44.98;31.77;;;29.60;51.70;;;;;;1849950;77;21148;-81
2022/04/08 12:21:48;;;;;;;39.35;29.63;;;29.60;52.00;;;;;;1837128;76;21160;-80
2022/04/08 12:24:20;;;;;;;34.65;28.40;;;29.50;51.80;;;;;;1851448;77;21268;-81
2022/04/08 12:26:53;;;;;;;38.38;29.65;;;29.50;52.10;;;;;;1857709;76;21162;-80
2022/04/08 12:29:26;;;;;;;34.88;24.37;;;29.50;52.00;;;;;;1846051;76;21150;-81
2022/04/08 12:32:07;;;;;;;48.73;38.30;;;29.40;51.90;;;;;;1857855;76;21148;-80
2022/04/08 12:34:44;;;;;;;45.63;34.83;;;29.40;52.40;;;;;;1853833;76;21220;-81
2022/04/08 12:37:16;;;;;;;33.88;29.40;;;29.40;52.40;;;;;;1827321;76;21220;-81
2022/04/08 12:39:50;;;;;;;44.20;29.52;;;29.40;52.40;;;;;;1857775;76;21220;-81
2022/04/08 12:42:23;;;;;;;41.60;26.80;;;29.30;52.70;;;;;;1853002;76;21157;-82
2022/04/08 12:44:54;;;;;;;33.67;26.70;;;29.30;52.70;;;;;;1852132;77;21134;-81
2022/04/08 12:47:24;;;;;;;37.67;26.35;;;29.30;52.60;;;;;;1855007;76;22026;-81
2022/04/08 12:50:00;;;;;;;31.60;25.75;;;29.30;52.60;;;;;;1855683;77;21187;-81
2022/04/08 12:52:31;;;;;;;33.83;27.00;;;29.20;52.60;;;;;;1854051;76;21606;-82
2022/04/08 12:55:03;;;;;;;35.23;26.57;;;29.20;52.60;;;;;;1863787;76;21228;-80
2022/04/08 12:57:34;;;;;;;39.55;27.45;;;29.20;53.00;;;;;;1853610;76;21106;-81